Terminal Aerodrome Forecast
Issued by NWS Melbourne, FL

Current Version | Previous Version | Text Only | Print | Product List | Glossary On
Versions: 1 2 3 4 5 6 7 8 9 10 11 12 13 14 15 16
000
FTUS42 KMLB 281100
TAFMLB
TAF
KMLB 281120Z 2812/2912 32007KT P6SM SKC
     FM281500 35014G20KT P6SM SKC
     FM290200 36008KT P6SM FEW035
     FM290900 34007KT P6SM BKN035=

USA.gov is the U.S. government's official web portal to all federal, state and local government web resources and services.